Aérodrome :
LOGIN :

S'inscrire | Disclaimer

   EN    FR    IT 

 










Légende :    VFR   VFR Marginal   IFR   IFR Intensif   IFR Très Intensif
Visi : 
Plafond : 
>= 8 km
>= 3000ft
5 à 8 km
1000 à 3000 ft
1500m à 5 km
500 à 1000 ft
800 à 1500m
200 à 500 ft
< 800m
< 200 ft
Symboles :   Orages  Brouillard  Fortes neiges  Fortes précipitations  Vent > 20 kt
SIGMETs :   Divers  Orages  Givrage  Turbulence  Onde Orograph.  Cendres Volcan.






- Altitude de l'aérodrome : 1306 ft
- Code IATA : ACH


LSZR - Alten Rhein

DERNIER METAR :
  • 041050Z 14003KT 120V190 8000 -RA SCT037 BKN041 14/11 Q1017 NOSIG RMK G

METARs EXPIRÉS :
  • 041020Z 17004KT 110V230 8000 -RA FEW013 BKN023 BKN026 13/12 Q1017 NOSIG RMK F
  • 040950Z 17004KT 110V230 8000 -RA FEW013 BKN023 BKN026 13/12 Q1017 NOSIG RMK F
  • 040920Z VRB02KT 9999 -RA SCT040 OVC085 15/12 Q1016 NOSIG RMK E
  • 040850Z VRB02KT 9999 SCT040 OVC085 15/12 Q1016 NOSIG RMK E
  • 040820Z VRB03KT 9999 -DZ FEW060 OVC070 15/13 Q1015 NOSIG RMK D

TAF TAF LSZR
Valide du 04 à 09h jusqu'au 04 à 18h UTC


040825Z 0409/0418 VRB03KT 9999 -RA BKN060
PROB40
TEMPO 0409/0416 SHRA FEW045TCU
ATIS : +41 71 858 51 66



MET'MAP, la Météo Aéronautique d'un coup d'oeil ! - Copyright ORBIFLY Décembre 2007 - Disclaimer

ORBIFLY MET'MAP TEAM :

Programmation & Développement : Alexandra Zaïnal
Sur une idée originale de : Baudouin d'Aumeries
Assistance à la programmation : Marc-Olivier Méhu
Soutien technique & logistique : Manuel Goepfert

Contact : metmap@orbifly.com




SOURCES & CREDITS :

   NOAA